岡山グライダークラブ活動状況掲示板あなたは無料カウンター人目の訪問者です

岡山グライダークラブ
岡山市浦安南町639-1 岡南飛行場
 使用機:シャイベ式 SF25C型 ファルケ   JA2330
      ヴァレンティン式17E型 タイフーン  JA2342
 練習日:毎日曜日  クラブルーム:電話 086-265-1810
この掲示板は岡山グライダークラブの活動状況をお知らせする掲示板です。
!!!この掲示板は投稿規制をしています。!!!
クラブ関連各種情報は 岡山グライダークラブクラブルーム      を       .
  ブリーフイング情報は  岡山グライダークラブブリーフィングルーム  をご覧下さい。 .
※写真はクリックすると拡大して見ることが出来ます。
岡南飛行場へのアクセス等は 岡南飛行場管理事務所 をご覧ください。
クラブの ホームページ ができました。

 
10月20日
by OGC at 2019/10/20(日) 20:14:10 No.20191020194818  削除コメント
1024 x 768 x 72,462バイト
No.1

10月20日
本日の参加者
  会員      14名
  その他      1名


@本日の様子




METAR
RJOB 200000Z 02003KT 350V050 9999 FEW020 BKN/// 17/15 Q1021
RJOT 200000Z VRB02KT 9999 FEW015 BKN/// 18/16 Q1021
RJOA 200000Z 08003KT 360V120 9999 FEW015 BKN/// 17/12 Q1021
TAF
RJOB 192309Z 2000/2106 03008KT 9999 FEW025
RJOT 192306Z 2000/2106 06006KT 9999 FEW020
RJOA 192305Z 2000/2106 03005KT 9999 FEW025

天候は曇り空で始まり、昼頃、積雲が少しでき、天候もよくなってきましたが、今日はトンビが多い一日でした。
ほぼ入会が同じ訓練生2名が、今日、ファーストソロに出て、2人とも満面の笑顔で帰ってきました。(祝)
また、他の訓練生も個々の課題克服のため、がんばっていました。


解散    17:30

1番機  10:30離陸 撤収機  16:45着陸 

SF25C JA2330 ファルケ     12Flt.3h20min  
17E   JA2342 タイフーン    05Flt.2h40min  
合計                    17Flt.6h00min

    << 戻る || ホームページ || 最新の掲示板へ